createdAt,value
2023-01-19T00:01:45.710Z,21.35
2023-01-19T00:04:14.255Z,24.20
2023-01-19T00:06:42.764Z,24.15
2023-01-19T00:09:12.367Z,23.02
2023-01-19T00:11:43.775Z,21.38
2023-01-19T00:14:12.250Z,20.63
2023-01-19T00:16:42.093Z,22.65
2023-01-19T00:19:10.535Z,21.50
2023-01-19T00:21:40.769Z,21.52
2023-01-19T00:24:09.351Z,31.65
2023-01-19T00:26:43.925Z,23.25
2023-01-19T00:29:13.015Z,23.65
2023-01-19T00:31:43.028Z,20.88
2023-01-19T00:34:11.493Z,20.63
2023-01-19T00:36:39.945Z,20.67
2023-01-19T00:39:08.833Z,19.27
2023-01-19T00:41:54.731Z,20.23
2023-01-19T00:44:23.181Z,21.30
2023-01-19T00:46:55.591Z,22.80
2023-01-19T00:49:24.009Z,19.63
2023-01-19T00:51:55.347Z,21.45
2023-01-19T00:54:23.800Z,20.10
2023-01-19T00:56:52.311Z,21.65
2023-01-19T00:59:20.900Z,21.10
2023-01-19T01:01:49.449Z,20.20
2023-01-19T01:04:19.486Z,20.80
2023-01-19T01:06:50.333Z,20.23
2023-01-19T01:09:18.772Z,19.65
2023-01-19T01:11:47.229Z,21.08
2023-01-19T01:14:15.784Z,18.70
2023-01-19T01:16:46.860Z,24.50
2023-01-19T01:19:15.935Z,20.65
2023-01-19T01:21:45.871Z,22.15
2023-01-19T01:24:14.439Z,20.67
2023-01-19T01:26:45.554Z,19.83
2023-01-19T01:29:14.194Z,24.25
2023-01-19T01:31:42.741Z,23.50
2023-01-19T01:34:14.262Z,21.95
2023-01-19T01:36:44.573Z,21.10
2023-01-19T01:39:15.275Z,21.52
2023-01-19T01:41:43.707Z,20.20
2023-01-19T01:44:51.257Z,19.27
2023-01-19T01:47:29.087Z,25.50
2023-01-19T01:50:08.266Z,21.08
2023-01-19T01:52:40.362Z,24.02
2023-01-19T01:55:12.255Z,26.45
2023-01-19T01:57:46.370Z,23.15
2023-01-19T02:00:15.819Z,22.63
2023-01-19T02:02:53.624Z,21.60
2023-01-19T02:05:27.315Z,22.30
2023-01-19T02:08:18.697Z,23.00
2023-01-19T02:11:06.622Z,19.67
2023-01-19T02:13:38.335Z,27.77
2023-01-19T02:16:09.235Z,23.00
2023-01-19T02:18:38.829Z,22.50
2023-01-19T02:21:13.305Z,24.25
2023-01-19T02:23:46.490Z,23.23
2023-01-19T02:26:18.111Z,23.20
2023-01-19T02:28:53.887Z,20.05
2023-01-19T02:31:24.873Z,27.90
2023-01-19T02:33:54.343Z,24.23
2023-01-19T02:36:26.404Z,26.27
2023-01-19T02:39:00.493Z,25.42
2023-01-19T02:41:32.223Z,25.88
2023-01-19T02:44:01.500Z,23.67
2023-01-19T02:46:30.059Z,25.08
2023-01-19T02:49:00.632Z,28.17
2023-01-19T02:51:30.109Z,22.85
2023-01-19T02:54:27.949Z,24.67
2023-01-19T02:57:14.332Z,22.50
2023-01-19T02:59:56.461Z,22.08
2023-01-19T03:02:37.379Z,24.48
2023-01-19T03:05:22.700Z,18.98
2023-01-19T03:08:00.006Z,23.30
2023-01-19T03:10:37.005Z,17.65
2023-01-19T03:13:14.265Z,20.40
2023-01-19T03:15:51.115Z,19.38
2023-01-19T03:18:24.833Z,19.92
2023-01-19T03:21:01.184Z,22.42
2023-01-19T03:23:35.388Z,23.90
2023-01-19T03:28:37.593Z,22.85
2023-01-19T03:31:15.547Z,21.20
2023-01-19T03:33:50.652Z,20.02
2023-01-19T03:36:25.820Z,20.02
2023-01-19T03:38:56.430Z,21.30
2023-01-19T03:41:29.023Z,21.65
2023-01-19T03:44:05.850Z,25.98
2023-01-19T03:46:35.118Z,22.10
2023-01-19T03:49:03.820Z,21.40
2023-01-19T03:51:34.667Z,18.45
2023-01-19T03:54:03.209Z,22.92
2023-01-19T03:56:33.180Z,22.17
2023-01-19T03:59:01.809Z,20.08
2023-01-19T04:01:30.401Z,18.58
2023-01-19T04:03:58.976Z,22.52
2023-01-19T04:06:28.301Z,20.00
2023-01-19T04:08:56.816Z,20.20
2023-01-19T04:11:25.282Z,19.88
2023-01-19T04:13:55.168Z,19.35
2023-01-19T04:16:23.658Z,20.20
2023-01-19T04:18:52.815Z,19.52
2023-01-19T04:21:21.567Z,19.85
2023-01-19T04:23:53.242Z,15.55
2023-01-19T04:26:21.794Z,17.63
2023-01-19T04:28:50.327Z,16.80
2023-01-19T04:31:23.395Z,15.50
2023-01-19T04:33:52.794Z,18.98
2023-01-19T04:36:21.313Z,16.83
2023-01-19T04:38:50.897Z,17.38
2023-01-19T04:41:19.412Z,18.58
2023-01-19T04:43:50.950Z,17.77
2023-01-19T04:46:35.091Z,18.38
2023-01-19T04:49:06.509Z,17.15
2023-01-19T04:51:35.711Z,16.85
2023-01-19T04:54:04.739Z,18.98
2023-01-19T04:56:33.315Z,16.20
2023-01-19T04:59:03.165Z,20.58
2023-01-19T05:01:33.185Z,17.33
2023-01-19T05:04:03.778Z,19.42
2023-01-19T05:06:32.305Z,17.00
2023-01-19T05:09:00.780Z,19.50
2023-01-19T05:11:29.234Z,19.77
2023-01-19T05:14:00.249Z,21.50
2023-01-19T05:16:28.748Z,16.85
2023-01-19T05:18:58.644Z,18.08
2023-01-19T05:21:27.214Z,21.17
2023-01-19T05:23:55.665Z,19.75
2023-01-19T05:26:26.703Z,20.65
2023-01-19T05:28:57.692Z,19.48
2023-01-19T05:31:26.838Z,17.00
2023-01-19T05:33:55.348Z,29.13
2023-01-19T05:36:27.737Z,22.95
2023-01-19T05:38:56.283Z,20.33
2023-01-19T05:41:27.928Z,20.48
2023-01-19T05:43:59.372Z,19.10
2023-01-19T05:46:29.823Z,19.20
2023-01-19T05:48:58.492Z,21.20
2023-01-19T05:51:34.953Z,17.38
2023-01-19T05:54:03.509Z,20.02
2023-01-19T05:56:31.995Z,19.85
2023-01-19T05:59:01.778Z,21.23
2023-01-19T06:01:30.275Z,19.13
2023-01-19T06:03:58.673Z,21.05
2023-01-19T06:06:28.586Z,19.10
2023-01-19T06:08:57.006Z,22.80
2023-01-19T06:11:26.185Z,18.05
2023-01-19T06:13:54.638Z,17.30
2023-01-19T06:16:23.144Z,23.17
2023-01-19T06:18:51.711Z,19.50
2023-01-19T06:21:22.411Z,23.63
2023-01-19T06:23:54.072Z,17.98
2023-01-19T06:26:22.609Z,22.48
2023-01-19T06:28:52.628Z,20.25
2023-01-19T06:31:23.091Z,20.85
2023-01-19T06:33:53.952Z,24.38
2023-01-19T06:36:22.385Z,25.10
2023-01-19T06:38:52.251Z,24.42
2023-01-19T06:41:20.766Z,24.25
2023-01-19T06:43:49.237Z,25.63
2023-01-19T06:46:17.751Z,28.85
2023-01-19T06:48:46.216Z,27.80
2023-01-19T06:51:14.820Z,27.00
2023-01-19T06:53:45.869Z,30.08
2023-01-19T06:56:17.609Z,23.63
2023-01-19T06:58:48.514Z,24.60
2023-01-19T07:01:19.482Z,25.08
2023-01-19T07:03:48.076Z,25.85
2023-01-19T07:06:16.583Z,22.15
2023-01-19T07:08:45.045Z,24.38
2023-01-19T07:11:23.656Z,27.40
2023-01-19T07:13:58.859Z,24.23
2023-01-19T07:16:27.418Z,23.50
2023-01-19T07:18:55.921Z,26.88
2023-01-19T07:21:24.651Z,25.92
2023-01-19T07:23:53.816Z,25.85
2023-01-19T07:26:27.524Z,25.27
2023-01-19T07:28:56.133Z,25.83
2023-01-19T07:31:27.307Z,26.25
2023-01-19T07:33:56.210Z,25.23
2023-01-19T07:36:24.729Z,24.88
2023-01-19T07:38:53.161Z,27.83
2023-01-19T07:41:21.697Z,25.70
2023-01-19T07:43:52.927Z,27.73
2023-01-19T07:46:21.539Z,24.27
2023-01-19T07:48:52.811Z,27.00
2023-01-19T07:51:21.237Z,30.45
2023-01-19T07:53:51.794Z,25.98
2023-01-19T07:56:22.382Z,26.88
2023-01-19T07:58:52.655Z,25.98
2023-01-19T08:01:21.306Z,28.00
2023-01-19T08:03:50.945Z,22.88
2023-01-19T08:06:22.916Z,28.73
2023-01-19T08:08:51.742Z,30.15
2023-01-19T08:11:20.388Z,29.05
2023-01-19T08:13:50.985Z,27.52
2023-01-19T08:16:21.048Z,25.92
2023-01-19T08:18:49.924Z,24.05
2023-01-19T08:21:18.454Z,27.88
2023-01-19T08:23:56.457Z,27.88
2023-01-19T08:26:29.913Z,30.35
2023-01-19T08:28:59.832Z,29.67
2023-01-19T08:31:31.727Z,24.27
2023-01-19T08:34:00.313Z,26.75
2023-01-19T08:36:28.943Z,26.90
2023-01-19T08:38:57.461Z,27.00
2023-01-19T08:41:25.936Z,33.17
2023-01-19T08:43:54.883Z,33.65
2023-01-19T08:46:23.376Z,30.67
2023-01-19T08:48:53.315Z,28.75
2023-01-19T08:51:21.829Z,28.13
